createdAt,value
2019-05-23T17:48:58.634Z,23.25
2019-05-23T17:49:58.594Z,23.36
2019-05-23T17:50:58.552Z,23.46
2019-05-23T17:53:26.176Z,23.10
2019-05-23T17:54:26.158Z,22.94
2019-05-23T17:55:27.233Z,22.66
2019-05-23T17:56:27.229Z,22.29
2019-05-23T17:57:27.219Z,22.04
2019-05-23T17:58:27.212Z,21.79
2019-05-23T17:59:28.203Z,21.40
2019-05-23T18:00:27.195Z,21.05
2019-05-23T18:01:27.188Z,20.84
2019-05-23T18:02:27.176Z,20.69
2019-05-23T18:03:27.186Z,20.44
2019-05-23T18:04:27.169Z,20.34
2019-05-23T18:05:27.182Z,20.25
2019-05-23T18:06:27.146Z,20.18
2019-05-23T18:07:27.147Z,19.99
2019-05-23T18:08:27.147Z,19.91
2019-05-23T18:09:27.140Z,19.74
2019-05-23T18:10:43.226Z,19.69
2019-05-23T18:11:29.120Z,19.48
2019-05-23T18:12:27.131Z,19.34
2019-05-23T18:13:27.112Z,19.22
2019-05-23T18:14:27.096Z,19.18
2019-05-23T18:15:27.085Z,19.21
2019-05-23T18:16:27.075Z,19.14
2019-05-23T18:17:27.067Z,19.09
2019-05-23T18:18:27.076Z,18.96
2019-05-23T18:19:27.054Z,18.90
2019-05-23T18:20:27.041Z,18.83
2019-05-23T18:21:27.051Z,18.74
2019-05-23T18:22:27.053Z,18.62
2019-05-23T18:23:27.022Z,18.49
2019-05-23T18:24:27.024Z,18.52
2019-05-23T18:25:27.008Z,18.53
2019-05-23T18:26:26.998Z,18.35
2019-05-23T18:33:16.503Z,18.00
2019-05-23T18:34:16.500Z,17.92
2019-05-23T18:35:17.588Z,17.86
2019-05-23T18:36:17.638Z,17.92
2019-05-23T18:37:17.552Z,17.85
2019-05-23T18:38:17.547Z,17.65
2019-05-23T18:39:17.535Z,17.52
2019-05-23T18:40:17.553Z,17.52
2019-05-23T18:41:17.526Z,17.48
2019-05-23T18:42:17.538Z,17.44
2019-05-23T18:43:17.526Z,17.39
2019-05-23T18:44:17.499Z,17.33
2019-05-23T18:45:17.489Z,17.20
2019-05-23T18:46:17.488Z,17.22
2019-05-23T18:47:17.481Z,17.26
2019-05-23T18:48:17.481Z,17.26
2019-05-23T18:49:17.456Z,17.15
2019-05-23T18:50:18.455Z,17.04
2019-05-23T18:51:17.468Z,16.99
2019-05-23T18:52:17.447Z,17.01
2019-05-23T18:53:17.442Z,16.91
2019-05-23T18:54:17.425Z,16.84
2019-05-23T18:55:17.420Z,16.86
2019-05-23T18:56:17.413Z,16.72
2019-05-23T18:57:17.401Z,16.68
2019-05-23T18:58:19.539Z,16.58
2019-05-23T18:59:18.391Z,16.69
2019-05-23T19:00:17.381Z,16.66
2019-05-23T19:01:17.374Z,16.61
2019-05-23T19:02:17.884Z,16.60
2019-05-23T19:03:17.458Z,16.58
2019-05-23T19:05:43.877Z,16.42
2019-05-23T19:06:45.164Z,16.41
2019-05-23T19:07:46.063Z,16.36
2019-05-23T19:08:48.665Z,16.41
2019-05-23T19:09:45.760Z,16.32
2019-05-23T19:12:18.595Z,16.23
2019-05-23T19:14:17.990Z,16.01
2019-05-23T19:18:14.643Z,15.83
2019-05-23T19:22:30.378Z,15.37
2019-05-23T19:25:49.108Z,15.43
2019-05-23T19:28:47.231Z,15.33
2019-05-23T19:31:36.842Z,15.18
2019-05-23T19:32:52.609Z,15.15
2019-05-23T19:35:36.235Z,15.03
2019-05-23T19:36:37.319Z,15.02
2019-05-23T19:38:16.378Z,14.96
2019-05-23T19:39:49.079Z,14.88
2019-05-23T19:41:03.462Z,14.92
2019-05-23T19:42:16.079Z,14.86
2019-05-23T19:43:16.997Z,14.86
2019-05-23T19:44:20.284Z,14.81
2019-05-23T19:48:04.494Z,14.65
2019-05-23T19:49:03.590Z,14.68
2019-05-23T19:50:03.925Z,14.60
2019-05-23T19:51:09.223Z,14.55
2019-05-23T19:52:06.962Z,14.65
2019-05-23T19:56:17.784Z,14.37
2019-05-23T19:59:16.449Z,14.26
2019-05-23T20:00:18.894Z,14.18
2019-05-23T20:02:39.310Z,13.93
2019-05-23T20:05:19.379Z,13.95
2019-05-23T20:07:49.998Z,13.97
2019-05-23T20:11:31.294Z,13.74
2019-05-23T20:15:19.979Z,13.83
2019-05-23T20:16:20.938Z,13.75
2019-05-23T20:17:20.933Z,13.72
2019-05-23T20:18:22.098Z,13.67
2019-05-23T20:19:23.820Z,13.70
2019-05-23T20:20:21.820Z,13.72
2019-05-23T20:21:21.088Z,13.62
2019-05-23T20:22:21.929Z,13.63
2019-05-23T20:23:42.630Z,13.62
2019-05-23T20:24:48.811Z,13.52
2019-05-23T20:25:22.819Z,13.46
2019-05-23T20:26:20.945Z,13.33
2019-05-23T20:27:20.885Z,13.35
2019-05-23T20:28:24.039Z,13.28
2019-05-23T20:29:23.976Z,13.27
2019-05-23T20:30:21.908Z,13.30
2019-05-23T20:31:20.841Z,13.20
2019-05-23T20:32:20.895Z,13.18
2019-05-23T20:33:20.881Z,13.09
2019-05-23T20:34:21.815Z,13.04
2019-05-23T20:35:21.313Z,13.09
2019-05-23T20:36:20.876Z,13.01
2019-05-23T20:37:22.239Z,13.00
2019-05-23T20:38:24.323Z,12.98
2019-05-23T20:39:20.822Z,12.98
2019-05-23T20:40:21.104Z,12.93
2019-05-23T20:41:24.572Z,12.97
2019-05-23T20:42:20.785Z,12.93
2019-05-23T20:43:25.397Z,12.95
2019-05-23T20:44:21.589Z,12.85
2019-05-23T20:45:20.738Z,12.80
2019-05-23T20:46:20.730Z,12.76
2019-05-23T20:47:20.815Z,12.85
2019-05-23T20:48:20.769Z,12.78
2019-05-23T20:49:22.814Z,12.75
2019-05-23T20:50:21.772Z,12.79
2019-05-23T20:51:20.707Z,12.67
2019-05-23T20:52:21.315Z,12.67
2019-05-23T20:53:21.652Z,12.62
2019-05-23T20:54:20.722Z,12.64
2019-05-23T20:55:20.730Z,12.62
2019-05-23T20:56:20.637Z,12.58
2019-05-23T20:57:20.702Z,12.50
2019-05-23T20:58:24.867Z,12.45
2019-05-23T20:59:25.821Z,12.42
